BKP258Y VTBS-VTSM
Flight info
| Callsign | BKP258Y |
|---|---|
| Flight time | 0h 48m |
| Altitude | 31000 |
| Route | UKERA1E UKERA W31 SUPOJ W32 ENRAG |
| Aircraft | A319/M-SDE3FGHIRWY/LB1 |
Departure
| Time | 2026-04-24 05:49 |
|---|---|
| Airport | Suvarnabhumi Airport (VTBS) |
Arrival
| Time | 2026-04-24 06:38 |
|---|---|
| Airport | Samui International Airport (VTSM) |
| Time | Latitude | Longitude | Altitude | Speed | Heading |
|---|---|---|---|---|---|
| 2026-04-24 05:26 | 13.68925 | 100.74534 | 14 ft | 0 kts | 104° |
| 2026-04-24 05:41 | 13.68930 | 100.74513 | 15 ft | 4 kts | 105° |
| 2026-04-24 05:41 | 13.68938 | 100.74486 | 14 ft | 4 kts | 109° |
| 2026-04-24 05:41 | 13.68948 | 100.74461 | 13 ft | 4 kts | 120° |
| 2026-04-24 05:41 | 13.68964 | 100.74442 | 14 ft | 3 kts | 182° |
| 2026-04-24 05:42 | 13.68968 | 100.74442 | 15 ft | 1 kts | 194° |
| 2026-04-24 05:44 | 13.68962 | 100.74441 | 14 ft | 3 kts | 194° |
| 2026-04-24 05:44 | 13.68931 | 100.74432 | 15 ft | 7 kts | 194° |
| 2026-04-24 05:44 | 13.68861 | 100.74414 | 13 ft | 13 kts | 194° |
| 2026-04-24 05:44 | 13.68784 | 100.74361 | 14 ft | 15 kts | 261° |
| 2026-04-24 05:45 | 13.68812 | 100.74248 | 15 ft | 17 kts | 297° |
| 2026-04-24 05:45 | 13.68922 | 100.74230 | 13 ft | 18 kts | 14° |
| 2026-04-24 05:45 | 13.69049 | 100.74264 | 14 ft | 20 kts | 15° |
| 2026-04-24 05:45 | 13.69190 | 100.74302 | 13 ft | 22 kts | 14° |
| 2026-04-24 05:46 | 13.69341 | 100.74341 | 13 ft | 23 kts | 14° |
| 2026-04-24 05:46 | 13.69501 | 100.74383 | 15 ft | 24 kts | 14° |
| 2026-04-24 05:46 | 13.69670 | 100.74428 | 13 ft | 26 kts | 15° |
| 2026-04-24 05:46 | 13.69846 | 100.74457 | 13 ft | 25 kts | 337° |
| 2026-04-24 05:47 | 13.69915 | 100.74292 | 15 ft | 27 kts | 284° |
| 2026-04-24 05:47 | 13.69962 | 100.74103 | 13 ft | 28 kts | 284° |
| 2026-04-24 05:47 | 13.70009 | 100.73922 | 14 ft | 19 kts | 283° |
| 2026-04-24 05:47 | 13.69933 | 100.73824 | 14 ft | 21 kts | 198° |
| 2026-04-24 05:48 | 13.69909 | 100.73817 | 13 ft | 0 kts | 194° |
| 2026-04-24 05:48 | 13.69907 | 100.73816 | 13 ft | 2 kts | 194° |
| 2026-04-24 05:48 | 13.69788 | 100.73786 | 14 ft | 46 kts | 194° |
| 2026-04-24 05:49 | 13.69291 | 100.73660 | 15 ft | 99 kts | 194° |
| 2026-04-24 05:49 | 13.68471 | 100.73444 | 15 ft | 143 kts | 194° |
| 2026-04-24 05:49 | 13.67364 | 100.73157 | 27 ft | 183 kts | 194° |
| 2026-04-24 05:49 | 13.66125 | 100.72823 | 624 ft | 183 kts | 193° |
| 2026-04-24 05:50 | 13.64878 | 100.72502 | 1302 ft | 185 kts | 194° |
| 2026-04-24 05:50 | 13.63560 | 100.72195 | 1783 ft | 206 kts | 192° |
| 2026-04-24 05:50 | 13.62069 | 100.71851 | 2153 ft | 231 kts | 193° |
| 2026-04-24 05:50 | 13.60442 | 100.71480 | 2725 ft | 249 kts | 192° |
| 2026-04-24 05:51 | 13.58696 | 100.71061 | 3392 ft | 263 kts | 194° |
| 2026-04-24 05:51 | 13.56896 | 100.70610 | 3868 ft | 269 kts | 193° |
| 2026-04-24 05:51 | 13.55062 | 100.70180 | 4620 ft | 271 kts | 192° |
| 2026-04-24 05:51 | 13.53252 | 100.69606 | 5489 ft | 275 kts | 204° |
| 2026-04-24 05:52 | 13.51644 | 100.68563 | 6302 ft | 280 kts | 220° |
| 2026-04-24 05:52 | 13.50292 | 100.67092 | 7087 ft | 285 kts | 229° |
| 2026-04-24 05:52 | 13.48970 | 100.65517 | 7894 ft | 290 kts | 229° |
| 2026-04-24 05:52 | 13.47658 | 100.63963 | 8680 ft | 294 kts | 228° |
| 2026-04-24 05:53 | 13.46307 | 100.62369 | 9464 ft | 298 kts | 228° |
| 2026-04-24 05:53 | 13.44926 | 100.60745 | 9874 ft | 303 kts | 228° |
| 2026-04-24 05:53 | 13.43536 | 100.59110 | 9985 ft | 310 kts | 228° |
| 2026-04-24 05:53 | 13.42050 | 100.57363 | 10014 ft | 338 kts | 228° |
| 2026-04-24 05:54 | 13.40440 | 100.55468 | 10006 ft | 364 kts | 228° |
| 2026-04-24 05:54 | 13.38591 | 100.53601 | 10108 ft | 380 kts | 220° |
| 2026-04-24 05:54 | 13.36579 | 100.51811 | 10614 ft | 384 kts | 220° |
| 2026-04-24 05:54 | 13.34555 | 100.49999 | 11179 ft | 387 kts | 220° |
| 2026-04-24 05:55 | 13.32523 | 100.48175 | 11747 ft | 390 kts | 220° |
| 2026-04-24 05:55 | 13.30473 | 100.46333 | 12308 ft | 393 kts | 221° |
| 2026-04-24 05:55 | 13.28409 | 100.44478 | 12868 ft | 395 kts | 221° |
| 2026-04-24 05:55 | 13.26331 | 100.42611 | 13428 ft | 398 kts | 221° |
| 2026-04-24 05:56 | 13.24241 | 100.40733 | 13940 ft | 401 kts | 221° |
| 2026-04-24 05:56 | 13.22132 | 100.38842 | 14423 ft | 404 kts | 220° |
| 2026-04-24 05:56 | 13.20008 | 100.36943 | 14893 ft | 407 kts | 220° |
| 2026-04-24 05:56 | 13.17893 | 100.35053 | 15354 ft | 410 kts | 220° |
| 2026-04-24 05:57 | 13.15711 | 100.33101 | 15833 ft | 413 kts | 220° |
| 2026-04-24 05:57 | 13.13538 | 100.31156 | 16297 ft | 416 kts | 220° |
| 2026-04-24 05:57 | 13.11347 | 100.29195 | 16767 ft | 419 kts | 220° |
| 2026-04-24 05:57 | 13.09144 | 100.27223 | 17216 ft | 422 kts | 221° |
| 2026-04-24 05:58 | 13.06953 | 100.25262 | 17649 ft | 425 kts | 221° |
| 2026-04-24 05:58 | 13.04712 | 100.23260 | 17906 ft | 428 kts | 220° |
| 2026-04-24 05:58 | 13.02423 | 100.21302 | 18304 ft | 430 kts | 216° |
| 2026-04-24 05:58 | 12.99859 | 100.19716 | 18658 ft | 432 kts | 205° |
| 2026-04-24 05:59 | 12.97051 | 100.18610 | 19012 ft | 434 kts | 195° |
| 2026-04-24 05:59 | 12.94090 | 100.17974 | 19363 ft | 436 kts | 189° |
| 2026-04-24 05:59 | 12.91095 | 100.17438 | 19721 ft | 438 kts | 189° |
| 2026-04-24 05:59 | 12.88085 | 100.16901 | 20076 ft | 440 kts | 189° |
| 2026-04-24 06:00 | 12.85055 | 100.16362 | 20416 ft | 442 kts | 189° |
| 2026-04-24 06:00 | 12.82020 | 100.15824 | 20745 ft | 444 kts | 189° |
| 2026-04-24 06:00 | 12.78968 | 100.15286 | 21063 ft | 446 kts | 189° |
| 2026-04-24 06:00 | 12.75896 | 100.14744 | 21379 ft | 448 kts | 189° |
| 2026-04-24 06:01 | 12.72817 | 100.14201 | 21681 ft | 450 kts | 189° |
| 2026-04-24 06:01 | 12.69722 | 100.13650 | 21975 ft | 452 kts | 189° |
| 2026-04-24 06:01 | 12.66607 | 100.13093 | 22261 ft | 455 kts | 189° |
| 2026-04-24 06:01 | 12.63478 | 100.12537 | 22550 ft | 457 kts | 189° |
| 2026-04-24 06:02 | 12.60343 | 100.11980 | 22820 ft | 459 kts | 189° |
| 2026-04-24 06:02 | 12.57190 | 100.11422 | 23091 ft | 461 kts | 189° |
| 2026-04-24 06:02 | 12.54024 | 100.10863 | 23353 ft | 462 kts | 189° |
| 2026-04-24 06:02 | 12.50891 | 100.10307 | 23574 ft | 464 kts | 189° |
| 2026-04-24 06:03 | 12.47704 | 100.09743 | 23781 ft | 466 kts | 189° |
| 2026-04-24 06:03 | 12.44501 | 100.09175 | 23983 ft | 468 kts | 189° |
| 2026-04-24 06:03 | 12.41289 | 100.08606 | 24180 ft | 469 kts | 189° |
| 2026-04-24 06:03 | 12.38062 | 100.08035 | 24377 ft | 471 kts | 189° |
| 2026-04-24 06:04 | 12.34825 | 100.07460 | 24572 ft | 473 kts | 189° |
| 2026-04-24 06:04 | 12.31583 | 100.06885 | 24761 ft | 474 kts | 189° |
| 2026-04-24 06:04 | 12.28323 | 100.06308 | 24948 ft | 476 kts | 189° |
| 2026-04-24 06:04 | 12.25059 | 100.05732 | 25136 ft | 477 kts | 189° |
| 2026-04-24 06:05 | 12.21777 | 100.05154 | 25325 ft | 479 kts | 189° |
| 2026-04-24 06:05 | 12.18491 | 100.04575 | 25518 ft | 480 kts | 189° |
| 2026-04-24 06:05 | 12.15195 | 100.03993 | 25699 ft | 482 kts | 189° |
| 2026-04-24 06:05 | 12.11879 | 100.03405 | 25881 ft | 483 kts | 189° |
| 2026-04-24 06:06 | 12.08560 | 100.02817 | 26061 ft | 485 kts | 189° |
| 2026-04-24 06:06 | 12.05225 | 100.02278 | 26239 ft | 486 kts | 185° |
| 2026-04-24 06:06 | 12.01846 | 100.02161 | 26413 ft | 486 kts | 176° |
| 2026-04-24 06:06 | 11.98471 | 100.02483 | 26588 ft | 487 kts | 172° |
| 2026-04-24 06:07 | 11.95096 | 100.02861 | 26764 ft | 488 kts | 173° |
| 2026-04-24 06:07 | 11.91715 | 100.03234 | 26935 ft | 490 kts | 173° |
| 2026-04-24 06:07 | 11.88319 | 100.03606 | 27087 ft | 492 kts | 173° |
| 2026-04-24 06:07 | 11.84910 | 100.03977 | 27257 ft | 493 kts | 173° |
| 2026-04-24 06:08 | 11.81535 | 100.04348 | 27439 ft | 494 kts | 173° |
| 2026-04-24 06:08 | 11.78119 | 100.04724 | 27692 ft | 494 kts | 173° |
| 2026-04-24 06:08 | 11.74699 | 100.05102 | 27951 ft | 493 kts | 173° |
| 2026-04-24 06:08 | 11.71290 | 100.05477 | 28202 ft | 493 kts | 173° |
| 2026-04-24 06:09 | 11.67878 | 100.05853 | 28451 ft | 493 kts | 173° |
| 2026-04-24 06:09 | 11.64466 | 100.06229 | 28714 ft | 493 kts | 173° |
| 2026-04-24 06:09 | 11.62162 | 100.06481 | 28895 ft | 493 kts | 173° |
| 2026-04-24 06:09 | 11.58800 | 100.06847 | 29158 ft | 493 kts | 173° |
| 2026-04-24 06:10 | 11.55395 | 100.07219 | 29432 ft | 492 kts | 173° |
| 2026-04-24 06:10 | 11.51981 | 100.07595 | 29709 ft | 493 kts | 173° |
| 2026-04-24 06:10 | 11.48566 | 100.07970 | 29967 ft | 493 kts | 173° |
| 2026-04-24 06:11 | 11.41754 | 100.08701 | 30484 ft | 492 kts | 173° |
| 2026-04-24 06:11 | 11.38354 | 100.09054 | 30753 ft | 491 kts | 173° |
| 2026-04-24 06:11 | 11.34957 | 100.09403 | 30845 ft | 489 kts | 173° |
| 2026-04-24 06:12 | 11.28204 | 100.10100 | 30859 ft | 487 kts | 173° |
| 2026-04-24 06:12 | 11.21471 | 100.10801 | 30858 ft | 487 kts | 173° |
| 2026-04-24 06:13 | 11.14728 | 100.11504 | 30863 ft | 487 kts | 173° |
| 2026-04-24 06:13 | 11.07983 | 100.12210 | 30859 ft | 487 kts | 173° |
| 2026-04-24 06:14 | 11.01280 | 100.12911 | 30541 ft | 486 kts | 173° |
| 2026-04-24 06:14 | 10.97890 | 100.13268 | 29343 ft | 495 kts | 173° |
| 2026-04-24 06:14 | 10.94438 | 100.13631 | 27989 ft | 503 kts | 173° |
| 2026-04-24 06:14 | 10.90962 | 100.13996 | 27028 ft | 501 kts | 173° |
| 2026-04-24 06:15 | 10.87499 | 100.14357 | 25920 ft | 500 kts | 173° |
| 2026-04-24 06:15 | 10.84033 | 100.14716 | 24803 ft | 500 kts | 173° |
| 2026-04-24 06:15 | 10.80572 | 100.15074 | 23704 ft | 499 kts | 173° |
| 2026-04-24 06:15 | 10.77150 | 100.15431 | 22900 ft | 488 kts | 173° |
| 2026-04-24 06:16 | 10.73797 | 100.15782 | 21999 ft | 479 kts | 173° |
| 2026-04-24 06:16 | 10.70503 | 100.16126 | 21050 ft | 472 kts | 173° |
| 2026-04-24 06:16 | 10.67259 | 100.16464 | 20108 ft | 467 kts | 173° |
| 2026-04-24 06:16 | 10.64045 | 100.16797 | 19206 ft | 461 kts | 173° |
| 2026-04-24 06:17 | 10.60871 | 100.17128 | 18342 ft | 456 kts | 173° |
| 2026-04-24 06:17 | 10.57726 | 100.17455 | 17383 ft | 451 kts | 173° |
| 2026-04-24 06:17 | 10.54620 | 100.17777 | 16438 ft | 445 kts | 173° |
| 2026-04-24 06:17 | 10.51605 | 100.18088 | 15518 ft | 439 kts | 173° |
| 2026-04-24 06:18 | 10.48578 | 100.18402 | 14630 ft | 434 kts | 173° |
| 2026-04-24 06:18 | 10.45550 | 100.18716 | 13768 ft | 429 kts | 173° |
| 2026-04-24 06:18 | 10.42635 | 100.19021 | 12919 ft | 425 kts | 173° |
| 2026-04-24 06:18 | 10.39753 | 100.19322 | 12675 ft | 405 kts | 173° |
| 2026-04-24 06:19 | 10.37022 | 100.19606 | 12543 ft | 383 kts | 173° |
| 2026-04-24 06:19 | 10.34435 | 100.19874 | 12417 ft | 363 kts | 173° |
| 2026-04-24 06:19 | 10.31975 | 100.20126 | 12295 ft | 346 kts | 173° |
| 2026-04-24 06:19 | 10.29633 | 100.20367 | 12173 ft | 331 kts | 173° |
| 2026-04-24 06:20 | 10.27376 | 100.20406 | 12049 ft | 319 kts | 184° |
| 2026-04-24 06:20 | 10.25210 | 100.20046 | 11806 ft | 312 kts | 189° |
| 2026-04-24 06:20 | 10.23083 | 100.19626 | 11458 ft | 310 kts | 189° |
| 2026-04-24 06:20 | 10.20975 | 100.19211 | 11105 ft | 307 kts | 189° |
| 2026-04-24 06:21 | 10.18880 | 100.18801 | 10785 ft | 306 kts | 189° |
| 2026-04-24 06:21 | 10.16825 | 100.18398 | 10505 ft | 304 kts | 189° |
| 2026-04-24 06:21 | 10.14755 | 100.17990 | 10230 ft | 302 kts | 189° |
| 2026-04-24 06:21 | 10.12698 | 100.17584 | 9958 ft | 300 kts | 189° |
| 2026-04-24 06:22 | 10.10649 | 100.17180 | 9688 ft | 299 kts | 189° |
| 2026-04-24 06:22 | 10.08613 | 100.16779 | 9388 ft | 298 kts | 189° |
| 2026-04-24 06:22 | 10.06580 | 100.16380 | 9092 ft | 297 kts | 189° |
| 2026-04-24 06:22 | 10.04555 | 100.15981 | 8794 ft | 296 kts | 189° |
| 2026-04-24 06:23 | 10.02533 | 100.15590 | 8493 ft | 296 kts | 189° |
| 2026-04-24 06:23 | 10.00504 | 100.15229 | 8197 ft | 295 kts | 188° |
| 2026-04-24 06:23 | 9.98476 | 100.14885 | 7901 ft | 295 kts | 188° |
| 2026-04-24 06:23 | 9.96446 | 100.14547 | 7598 ft | 295 kts | 188° |
| 2026-04-24 06:24 | 9.94417 | 100.14208 | 7310 ft | 297 kts | 188° |
| 2026-04-24 06:24 | 9.92384 | 100.13864 | 7066 ft | 296 kts | 188° |
| 2026-04-24 06:24 | 9.90356 | 100.13518 | 6791 ft | 295 kts | 188° |
| 2026-04-24 06:24 | 9.88338 | 100.13173 | 6523 ft | 294 kts | 188° |
| 2026-04-24 06:25 | 9.86323 | 100.12828 | 6255 ft | 294 kts | 189° |
| 2026-04-24 06:25 | 9.84307 | 100.12483 | 5983 ft | 292 kts | 189° |
| 2026-04-24 06:25 | 9.82307 | 100.12138 | 5711 ft | 291 kts | 189° |
| 2026-04-24 06:25 | 9.80317 | 100.11792 | 5354 ft | 293 kts | 189° |
| 2026-04-24 06:26 | 9.78240 | 100.11430 | 4579 ft | 310 kts | 189° |
| 2026-04-24 06:26 | 9.76100 | 100.11059 | 3786 ft | 322 kts | 189° |
| 2026-04-24 06:26 | 9.73896 | 100.10658 | 3428 ft | 318 kts | 193° |
| 2026-04-24 06:26 | 9.71870 | 100.09873 | 3299 ft | 306 kts | 204° |
| 2026-04-24 06:27 | 9.69975 | 100.09013 | 3304 ft | 291 kts | 204° |
| 2026-04-24 06:27 | 9.68171 | 100.08183 | 3304 ft | 277 kts | 204° |
| 2026-04-24 06:27 | 9.66377 | 100.07375 | 2604 ft | 292 kts | 201° |
| 2026-04-24 06:27 | 9.64434 | 100.06617 | 1951 ft | 302 kts | 198° |
| 2026-04-24 06:28 | 9.62451 | 100.05965 | 1582 ft | 298 kts | 194° |
| 2026-04-24 06:28 | 9.60432 | 100.05553 | 1204 ft | 294 kts | 184° |
| 2026-04-24 06:28 | 9.58430 | 100.05631 | 800 ft | 288 kts | 168° |
| 2026-04-24 06:28 | 9.56466 | 100.06062 | 377 ft | 288 kts | 168° |
| 2026-04-24 06:29 | 9.54531 | 100.06319 | 537 ft | 276 kts | 174° |
| 2026-04-24 06:29 | 9.52525 | 100.06576 | 978 ft | 309 kts | 166° |
| 2026-04-24 06:29 | 9.50526 | 100.07481 | 1754 ft | 312 kts | 148° |
| 2026-04-24 06:29 | 9.48669 | 100.08683 | 2511 ft | 321 kts | 145° |
| 2026-04-24 06:30 | 9.47191 | 100.10183 | 2806 ft | 294 kts | 119° |
| 2026-04-24 06:30 | 9.46719 | 100.12104 | 2961 ft | 276 kts | 86° |
| 2026-04-24 06:30 | 9.47355 | 100.13866 | 2998 ft | 266 kts | 51° |
| 2026-04-24 06:30 | 9.48858 | 100.14902 | 3005 ft | 266 kts | 15° |
| 2026-04-24 06:31 | 9.50689 | 100.14862 | 3010 ft | 268 kts | 343° |
| 2026-04-24 06:31 | 9.52452 | 100.14231 | 3006 ft | 269 kts | 340° |
| 2026-04-24 06:31 | 9.54212 | 100.13579 | 3007 ft | 269 kts | 340° |
| 2026-04-24 06:31 | 9.55975 | 100.12922 | 3008 ft | 269 kts | 340° |
| 2026-04-24 06:32 | 9.57736 | 100.12263 | 2895 ft | 270 kts | 340° |
| 2026-04-24 06:32 | 9.59528 | 100.11719 | 2747 ft | 269 kts | 349° |
| 2026-04-24 06:32 | 9.61385 | 100.11460 | 2618 ft | 269 kts | 355° |
| 2026-04-24 06:32 | 9.63254 | 100.11323 | 2500 ft | 269 kts | 358° |
| 2026-04-24 06:33 | 9.65123 | 100.11217 | 2500 ft | 269 kts | 358° |
| 2026-04-24 06:33 | 9.66969 | 100.10966 | 2505 ft | 268 kts | 340° |
| 2026-04-24 06:33 | 9.68400 | 100.09887 | 2402 ft | 262 kts | 307° |
| 2026-04-24 06:33 | 9.69020 | 100.08139 | 1815 ft | 272 kts | 269° |
| 2026-04-24 06:34 | 9.68772 | 100.06253 | 1671 ft | 266 kts | 259° |
| 2026-04-24 06:34 | 9.68594 | 100.04429 | 1668 ft | 255 kts | 263° |
| 2026-04-24 06:34 | 9.68396 | 100.02695 | 1662 ft | 240 kts | 253° |
| 2026-04-24 06:34 | 9.67603 | 100.01308 | 1657 ft | 222 kts | 220° |
| 2026-04-24 06:35 | 9.66311 | 100.00598 | 1653 ft | 204 kts | 189° |
| 2026-04-24 06:35 | 9.64937 | 100.00622 | 1655 ft | 196 kts | 161° |
| 2026-04-24 06:35 | 9.63765 | 100.01282 | 1646 ft | 193 kts | 135° |
| 2026-04-24 06:35 | 9.63048 | 100.02391 | 1679 ft | 189 kts | 109° |
| 2026-04-24 06:36 | 9.62616 | 100.03647 | 1483 ft | 188 kts | 116° |
| 2026-04-24 06:36 | 9.61835 | 100.04698 | 1067 ft | 187 kts | 139° |
| 2026-04-24 06:36 | 9.60727 | 100.05358 | 763 ft | 183 kts | 156° |
| 2026-04-24 06:36 | 9.59549 | 100.05759 | 466 ft | 175 kts | 167° |
| 2026-04-24 06:37 | 9.58406 | 100.05939 | 414 ft | 154 kts | 173° |
| 2026-04-24 06:37 | 9.57423 | 100.05994 | 391 ft | 129 kts | 177° |
| 2026-04-24 06:37 | 9.56566 | 100.06050 | 178 ft | 118 kts | 171° |
| 2026-04-24 06:37 | 9.55768 | 100.06142 | 59 ft | 118 kts | 171° |
| 2026-04-24 06:38 | 9.55094 | 100.06221 | 53 ft | 61 kts | 175° |
| 2026-04-24 06:38 | 9.54916 | 100.06232 | 50 ft | 15 kts | 181° |
| 2026-04-24 06:38 | 9.54791 | 100.06230 | 52 ft | 15 kts | 160° |
| 2026-04-24 06:38 | 9.54805 | 100.06247 | 53 ft | 6 kts | 347° |
| 2026-04-24 06:39 | 9.54866 | 100.06236 | 51 ft | 12 kts | 352° |
| 2026-04-24 06:39 | 9.54962 | 100.06228 | 51 ft | 13 kts | 356° |
| 2026-04-24 06:39 | 9.55023 | 100.06289 | 53 ft | 12 kts | 45° |
| 2026-04-24 06:39 | 9.55100 | 100.06297 | 50 ft | 6 kts | 353° |
| 2026-04-24 06:40 | 9.55123 | 100.06337 | 53 ft | 10 kts | 85° |
| 2026-04-24 06:40 | 9.55123 | 100.06341 | 53 ft | 0 kts | 86° |